sensor_id;sensor_type;location;lat;lon;timestamp;P1;durP1;ratioP1;P2;durP2;ratioP2
41532;SDS011;27262;-35.248;149.138;2022-07-29T00:02:03;3.83;;;0.98;;
41532;SDS011;27262;-35.248;149.138;2022-07-29T00:04:34;1.65;;;0.63;;
41532;SDS011;27262;-35.248;149.138;2022-07-29T00:07:05;3.53;;;0.80;;
41532;SDS011;27262;-35.248;149.138;2022-07-29T00:09:36;1.33;;;0.80;;
41532;SDS011;27262;-35.248;149.138;2022-07-29T00:12:17;1.75;;;0.57;;
41532;SDS011;27262;-35.248;149.138;2022-07-29T00:14:56;1.65;;;0.30;;
41532;SDS011;27262;-35.248;149.138;2022-07-29T00:17:27;1.63;;;0.77;;
41532;SDS011;27262;-35.248;149.138;2022-07-29T00:19:57;1.63;;;0.70;;
41532;SDS011;27262;-35.248;149.138;2022-07-29T00:22:27;1.40;;;0.60;;
41532;SDS011;27262;-35.248;149.138;2022-07-29T00:24:58;3.03;;;0.50;;
41532;SDS011;27262;-35.248;149.138;2022-07-29T00:27:28;3.42;;;0.70;;
41532;SDS011;27262;-35.248;149.138;2022-07-29T00:29:58;2.28;;;0.70;;
41532;SDS011;27262;-35.248;149.138;2022-07-29T00:32:29;2.70;;;0.75;;
41532;SDS011;27262;-35.248;149.138;2022-07-29T00:34:59;2.85;;;0.70;;
41532;SDS011;27262;-35.248;149.138;2022-07-29T00:37:47;1.05;;;0.63;;
41532;SDS011;27262;-35.248;149.138;2022-07-29T00:40:17;3.13;;;0.50;;
41532;SDS011;27262;-35.248;149.138;2022-07-29T00:42:50;2.65;;;0.50;;
41532;SDS011;27262;-35.248;149.138;2022-07-29T00:45:21;1.23;;;0.60;;
41532;SDS011;27262;-35.248;149.138;2022-07-29T00:47:52;1.80;;;0.60;;
41532;SDS011;27262;-35.248;149.138;2022-07-29T00:50:22;1.05;;;0.57;;
41532;SDS011;27262;-35.248;149.138;2022-07-29T00:52:52;0.63;;;0.52;;
41532;SDS011;27262;-35.248;149.138;2022-07-29T00:55:23;0.65;;;0.50;;
41532;SDS011;27262;-35.248;149.138;2022-07-29T00:57:53;1.75;;;0.68;;
41532;SDS011;27262;-35.248;149.138;2022-07-29T01:00:27;0.75;;;0.50;;
41532;SDS011;27262;-35.248;149.138;2022-07-29T01:03:00;1.08;;;0.50;;
41532;SDS011;27262;-35.248;149.138;2022-07-29T01:05:30;0.60;;;0.60;;
41532;SDS011;27262;-35.248;149.138;2022-07-29T01:08:20;1.50;;;0.55;;
41532;SDS011;27262;-35.248;149.138;2022-07-29T01:10:59;2.90;;;0.80;;
41532;SDS011;27262;-35.248;149.138;2022-07-29T01:13:32;0.75;;;0.60;;
41532;SDS011;27262;-35.248;149.138;2022-07-29T01:16:03;1.13;;;0.68;;
41532;SDS011;27262;-35.248;149.138;2022-07-29T01:18:41;3.85;;;0.80;;
41532;SDS011;27262;-35.248;149.138;2022-07-29T01:21:35;1.23;;;0.70;;
41532;SDS011;27262;-35.248;149.138;2022-07-29T01:30:31;0.70;;;0.63;;
41532;SDS011;27262;-35.248;149.138;2022-07-29T01:33:06;0.80;;;0.60;;
41532;SDS011;27262;-35.248;149.138;2022-07-29T01:36:01;0.52;;;0.40;;
41532;SDS011;27262;-35.248;149.138;2022-07-29T01:38:41;3.20;;;0.60;;
41532;SDS011;27262;-35.248;149.138;2022-07-29T01:41:15;2.83;;;0.80;;
41532;SDS011;27262;-35.248;149.138;2022-07-29T01:43:53;3.17;;;0.75;;
41532;SDS011;27262;-35.248;149.138;2022-07-29T01:46:33;3.40;;;0.65;;
41532;SDS011;27262;-35.248;149.138;2022-07-29T01:49:08;2.83;;;0.95;;
41532;SDS011;27262;-35.248;149.138;2022-07-29T01:52:11;3.85;;;0.68;;
41532;SDS011;27262;-35.248;149.138;2022-07-29T01:54:49;1.08;;;0.60;;
41532;SDS011;27262;-35.248;149.138;2022-07-29T01:57:26;1.25;;;0.70;;
41532;SDS011;27262;-35.248;149.138;2022-07-29T02:00:00;1.77;;;0.57;;
41532;SDS011;27262;-35.248;149.138;2022-07-29T02:02:33;4.78;;;0.73;;
41532;SDS011;27262;-35.248;149.138;2022-07-29T02:05:07;5.43;;;0.70;;
41532;SDS011;27262;-35.248;149.138;2022-07-29T02:07:41;1.17;;;0.60;;
41532;SDS011;27262;-35.248;149.138;2022-07-29T02:10:13;7.47;;;0.77;;
41532;SDS011;27262;-35.248;149.138;2022-07-29T02:12:51;1.00;;;0.65;;
41532;SDS011;27262;-35.248;149.138;2022-07-29T02:15:25;0.45;;;0.40;;
41532;SDS011;27262;-35.248;149.138;2022-07-29T02:18:02;4.55;;;0.80;;
41532;SDS011;27262;-35.248;149.138;2022-07-29T02:20:39;3.83;;;0.70;;
41532;SDS011;27262;-35.248;149.138;2022-07-29T02:23:14;4.05;;;0.70;;
41532;SDS011;27262;-35.248;149.138;2022-07-29T02:25:53;3.83;;;0.52;;
41532;SDS011;27262;-35.248;149.138;2022-07-29T02:28:26;2.40;;;0.50;;
41532;SDS011;27262;-35.248;149.138;2022-07-29T02:30:59;3.72;;;0.75;;
41532;SDS011;27262;-35.248;149.138;2022-07-29T02:33:32;1.33;;;0.50;;
41532;SDS011;27262;-35.248;149.138;2022-07-29T02:36:03;1.48;;;0.60;;
41532;SDS011;27262;-35.248;149.138;2022-07-29T02:38:34;2.00;;;0.45;;
41532;SDS011;27262;-35.248;149.138;2022-07-29T02:41:22;1.88;;;0.65;;
41532;SDS011;27262;-35.248;149.138;2022-07-29T02:43:57;2.17;;;0.55;;
41532;SDS011;27262;-35.248;149.138;2022-07-29T02:46:41;1.63;;;0.50;;
41532;SDS011;27262;-35.248;149.138;2022-07-29T02:49:38;2.15;;;0.65;;
41532;SDS011;27262;-35.248;149.138;2022-07-29T02:52:24;2.13;;;0.50;;
41532;SDS011;27262;-35.248;149.138;2022-07-29T02:54:58;1.35;;;0.68;;
41532;SDS011;27262;-35.248;149.138;2022-07-29T02:57:34;1.02;;;0.50;;
41532;SDS011;27262;-35.248;149.138;2022-07-29T03:00:21;1.10;;;0.60;;
41532;SDS011;27262;-35.248;149.138;2022-07-29T03:02:56;1.85;;;0.40;;
41532;SDS011;27262;-35.248;149.138;2022-07-29T03:05:31;0.93;;;0.50;;
41532;SDS011;27262;-35.248;149.138;2022-07-29T03:08:04;1.67;;;0.60;;
41532;SDS011;27262;-35.248;149.138;2022-07-29T03:10:38;1.65;;;0.60;;
41532;SDS011;27262;-35.248;149.138;2022-07-29T03:13:12;1.45;;;0.50;;
41532;SDS011;27262;-35.248;149.138;2022-07-29T03:15:43;0.85;;;0.45;;
41532;SDS011;27262;-35.248;149.138;2022-07-29T03:18:15;1.25;;;0.50;;
41532;SDS011;27262;-35.248;149.138;2022-07-29T03:20:46;3.13;;;0.63;;
41532;SDS011;27262;-35.248;149.138;2022-07-29T03:23:20;2.13;;;0.60;;
41532;SDS011;27262;-35.248;149.138;2022-07-29T03:25:52;1.08;;;0.60;;
41532;SDS011;27262;-35.248;149.138;2022-07-29T03:28:23;1.50;;;0.50;;
41532;SDS011;27262;-35.248;149.138;2022-07-29T03:30:55;0.77;;;0.63;;
41532;SDS011;27262;-35.248;149.138;2022-07-29T03:33:26;1.05;;;0.70;;
41532;SDS011;27262;-35.248;149.138;2022-07-29T03:35:57;1.45;;;0.80;;
41532;SDS011;27262;-35.248;149.138;2022-07-29T03:38:30;1.08;;;0.50;;
41532;SDS011;27262;-35.248;149.138;2022-07-29T03:41:09;2.22;;;0.80;;
41532;SDS011;27262;-35.248;149.138;2022-07-29T03:43:40;1.17;;;0.70;;
41532;SDS011;27262;-35.248;149.138;2022-07-29T03:46:15;0.90;;;0.50;;
41532;SDS011;27262;-35.248;149.138;2022-07-29T03:48:48;1.98;;;0.70;;
41532;SDS011;27262;-35.248;149.138;2022-07-29T03:51:25;0.82;;;0.70;;
41532;SDS011;27262;-35.248;149.138;2022-07-29T03:54:03;2.33;;;0.70;;
41532;SDS011;27262;-35.248;149.138;2022-07-29T03:56:45;1.00;;;0.60;;
41532;SDS011;27262;-35.248;149.138;2022-07-29T03:59:17;0.75;;;0.60;;
41532;SDS011;27262;-35.248;149.138;2022-07-29T04:01:49;1.27;;;0.60;;
41532;SDS011;27262;-35.248;149.138;2022-07-29T04:04:20;1.67;;;0.75;;
41532;SDS011;27262;-35.248;149.138;2022-07-29T04:06:53;1.52;;;0.60;;
41532;SDS011;27262;-35.248;149.138;2022-07-29T04:09:23;1.13;;;0.68;;
41532;SDS011;27262;-35.248;149.138;2022-07-29T04:11:53;1.10;;;0.70;;
41532;SDS011;27262;-35.248;149.138;2022-07-29T04:14:30;1.42;;;0.73;;
41532;SDS011;27262;-35.248;149.138;2022-07-29T04:17:02;0.88;;;0.60;;
41532;SDS011;27262;-35.248;149.138;2022-07-29T04:19:33;1.98;;;0.70;;
41532;SDS011;27262;-35.248;149.138;2022-07-29T04:22:04;0.98;;;0.52;;
41532;SDS011;27262;-35.248;149.138;2022-07-29T04:24:34;1.80;;;0.60;;
41532;SDS011;27262;-35.248;149.138;2022-07-29T04:27:09;1.45;;;0.77;;
41532;SDS011;27262;-35.248;149.138;2022-07-29T04:29:40;0.90;;;0.60;;
41532;SDS011;27262;-35.248;149.138;2022-07-29T04:32:23;0.95;;;0.52;;
41532;SDS011;27262;-35.248;149.138;2022-07-29T04:34:55;1.08;;;0.50;;
41532;SDS011;27262;-35.248;149.138;2022-07-29T04:37:25;0.45;;;0.40;;
41532;SDS011;27262;-35.248;149.138;2022-07-29T04:39:55;2.90;;;0.68;;
41532;SDS011;27262;-35.248;149.138;2022-07-29T04:42:25;0.82;;;0.50;;
41532;SDS011;27262;-35.248;149.138;2022-07-29T04:44:56;1.25;;;0.52;;
41532;SDS011;27262;-35.248;149.138;2022-07-29T04:47:27;0.60;;;0.60;;
41532;SDS011;27262;-35.248;149.138;2022-07-29T04:49:57;0.70;;;0.60;;
41532;SDS011;27262;-35.248;149.138;2022-07-29T04:52:28;0.98;;;0.50;;
41532;SDS011;27262;-35.248;149.138;2022-07-29T04:54:58;0.52;;;0.50;;
41532;SDS011;27262;-35.248;149.138;2022-07-29T04:57:29;1.40;;;0.40;;
41532;SDS011;27262;-35.248;149.138;2022-07-29T05:00:00;2.80;;;0.68;;
41532;SDS011;27262;-35.248;149.138;2022-07-29T05:02:30;2.63;;;0.70;;
41532;SDS011;27262;-35.248;149.138;2022-07-29T05:05:00;2.20;;;0.55;;
41532;SDS011;27262;-35.248;149.138;2022-07-29T05:07:32;3.30;;;0.73;;
41532;SDS011;27262;-35.248;149.138;2022-07-29T05:10:02;3.53;;;0.70;;
41532;SDS011;27262;-35.248;149.138;2022-07-29T05:12:33;1.42;;;0.70;;
41532;SDS011;27262;-35.248;149.138;2022-07-29T05:15:03;2.45;;;0.45;;
41532;SDS011;27262;-35.248;149.138;2022-07-29T05:17:35;0.60;;;0.60;;
41532;SDS011;27262;-35.248;149.138;2022-07-29T05:20:05;1.80;;;0.70;;
41532;SDS011;27262;-35.248;149.138;2022-07-29T05:22:36;1.42;;;0.70;;
41532;SDS011;27262;-35.248;149.138;2022-07-29T05:25:07;0.43;;;0.40;;
41532;SDS011;27262;-35.248;149.138;2022-07-29T05:27:38;0.60;;;0.60;;
41532;SDS011;27262;-35.248;149.138;2022-07-29T05:30:08;0.73;;;0.47;;
41532;SDS011;27262;-35.248;149.138;2022-07-29T05:32:39;1.38;;;0.50;;
41532;SDS011;27262;-35.248;149.138;2022-07-29T05:35:09;2.95;;;0.60;;
41532;SDS011;27262;-35.248;149.138;2022-07-29T05:37:40;1.13;;;0.40;;
41532;SDS011;27262;-35.248;149.138;2022-07-29T05:40:10;1.80;;;0.45;;
41532;SDS011;27262;-35.248;149.138;2022-07-29T05:42:41;3.65;;;0.77;;
41532;SDS011;27262;-35.248;149.138;2022-07-29T05:45:11;3.83;;;0.60;;
41532;SDS011;27262;-35.248;149.138;2022-07-29T05:47:42;2.15;;;0.68;;
41532;SDS011;27262;-35.248;149.138;2022-07-29T05:50:13;1.50;;;0.82;;
41532;SDS011;27262;-35.248;149.138;2022-07-29T05:52:44;1.73;;;0.60;;
41532;SDS011;27262;-35.248;149.138;2022-07-29T05:55:15;1.25;;;0.60;;
41532;SDS011;27262;-35.248;149.138;2022-07-29T05:57:45;1.50;;;0.70;;
41532;SDS011;27262;-35.248;149.138;2022-07-29T06:00:16;2.00;;;0.70;;
41532;SDS011;27262;-35.248;149.138;2022-07-29T06:02:46;0.98;;;0.70;;
41532;SDS011;27262;-35.248;149.138;2022-07-29T06:05:16;2.47;;;0.73;;
41532;SDS011;27262;-35.248;149.138;2022-07-29T06:07:47;1.55;;;0.55;;
41532;SDS011;27262;-35.248;149.138;2022-07-29T06:10:17;0.88;;;0.30;;
41532;SDS011;27262;-35.248;149.138;2022-07-29T06:12:52;3.63;;;0.40;;
41532;SDS011;27262;-35.248;149.138;2022-07-29T06:15:23;2.75;;;0.65;;
41532;SDS011;27262;-35.248;149.138;2022-07-29T06:17:53;3.00;;;0.70;;
41532;SDS011;27262;-35.248;149.138;2022-07-29T06:20:29;3.03;;;0.60;;
41532;SDS011;27262;-35.248;149.138;2022-07-29T06:23:01;5.80;;;0.63;;
41532;SDS011;27262;-35.248;149.138;2022-07-29T06:25:32;2.33;;;0.65;;
41532;SDS011;27262;-35.248;149.138;2022-07-29T06:28:05;0.57;;;0.47;;
41532;SDS011;27262;-35.248;149.138;2022-07-29T06:30:35;3.97;;;0.57;;
41532;SDS011;27262;-35.248;149.138;2022-07-29T06:33:05;2.90;;;0.73;;
41532;SDS011;27262;-35.248;149.138;2022-07-29T06:35:36;2.67;;;0.73;;
41532;SDS011;27262;-35.248;149.138;2022-07-29T06:38:19;3.42;;;0.60;;
41532;SDS011;27262;-35.248;149.138;2022-07-29T06:40:58;3.25;;;0.70;;
41532;SDS011;27262;-35.248;149.138;2022-07-29T06:43:33;1.60;;;0.70;;
41532;SDS011;27262;-35.248;149.138;2022-07-29T06:46:20;2.88;;;0.80;;
41532;SDS011;27262;-35.248;149.138;2022-07-29T06:48:51;1.70;;;0.93;;
41532;SDS011;27262;-35.248;149.138;2022-07-29T06:51:22;1.90;;;0.80;;
41532;SDS011;27262;-35.248;149.138;2022-07-29T06:53:52;3.58;;;0.70;;
41532;SDS011;27262;-35.248;149.138;2022-07-29T06:56:32;3.88;;;0.70;;
41532;SDS011;27262;-35.248;149.138;2022-07-29T06:59:07;2.00;;;0.70;;
41532;SDS011;27262;-35.248;149.138;2022-07-29T07:01:39;2.17;;;0.60;;
41532;SDS011;27262;-35.248;149.138;2022-07-29T07:04:11;7.93;;;0.60;;
41532;SDS011;27262;-35.248;149.138;2022-07-29T07:06:42;2.38;;;0.65;;
41532;SDS011;27262;-35.248;149.138;2022-07-29T07:09:13;4.88;;;0.68;;
41532;SDS011;27262;-35.248;149.138;2022-07-29T07:11:43;2.50;;;0.50;;
41532;SDS011;27262;-35.248;149.138;2022-07-29T07:14:16;2.42;;;0.60;;
41532;SDS011;27262;-35.248;149.138;2022-07-29T07:16:47;2.05;;;0.63;;
41532;SDS011;27262;-35.248;149.138;2022-07-29T07:19:20;2.15;;;0.75;;
41532;SDS011;27262;-35.248;149.138;2022-07-29T07:21:50;3.05;;;0.60;;
41532;SDS011;27262;-35.248;149.138;2022-07-29T07:24:21;0.93;;;0.47;;
41532;SDS011;27262;-35.248;149.138;2022-07-29T07:26:52;1.35;;;0.52;;
41532;SDS011;27262;-35.248;149.138;2022-07-29T07:29:22;1.17;;;0.43;;
41532;SDS011;27262;-35.248;149.138;2022-07-29T07:31:53;1.50;;;0.60;;
41532;SDS011;27262;-35.248;149.138;2022-07-29T07:34:27;2.83;;;0.80;;
41532;SDS011;27262;-35.248;149.138;2022-07-29T07:36:58;0.95;;;0.40;;
41532;SDS011;27262;-35.248;149.138;2022-07-29T07:39:28;2.22;;;0.50;;
41532;SDS011;27262;-35.248;149.138;2022-07-29T07:41:59;0.77;;;0.47;;
41532;SDS011;27262;-35.248;149.138;2022-07-29T07:44:29;2.47;;;0.57;;
41532;SDS011;27262;-35.248;149.138;2022-07-29T07:47:20;1.67;;;0.50;;
41532;SDS011;27262;-35.248;149.138;2022-07-29T07:49:54;0.95;;;0.45;;
41532;SDS011;27262;-35.248;149.138;2022-07-29T07:52:24;1.05;;;0.40;;
41532;SDS011;27262;-35.248;149.138;2022-07-29T07:54:55;0.93;;;0.52;;
41532;SDS011;27262;-35.248;149.138;2022-07-29T07:57:25;0.88;;;0.50;;
41532;SDS011;27262;-35.248;149.138;2022-07-29T07:59:55;0.82;;;0.47;;
41532;SDS011;27262;-35.248;149.138;2022-07-29T08:02:26;1.38;;;0.40;;
41532;SDS011;27262;-35.248;149.138;2022-07-29T08:04:56;0.50;;;0.40;;
41532;SDS011;27262;-35.248;149.138;2022-07-29T08:07:28;1.55;;;0.45;;
41532;SDS011;27262;-35.248;149.138;2022-07-29T08:09:58;1.58;;;0.30;;
41532;SDS011;27262;-35.248;149.138;2022-07-29T08:12:29;0.52;;;0.30;;
41532;SDS011;27262;-35.248;149.138;2022-07-29T08:14:59;0.98;;;0.57;;
41532;SDS011;27262;-35.248;149.138;2022-07-29T08:17:29;0.45;;;0.40;;
41532;SDS011;27262;-35.248;149.138;2022-07-29T08:20:01;0.30;;;0.30;;
41532;SDS011;27262;-35.248;149.138;2022-07-29T08:22:32;2.08;;;0.50;;
41532;SDS011;27262;-35.248;149.138;2022-07-29T08:25:03;1.50;;;0.60;;
41532;SDS011;27262;-35.248;149.138;2022-07-29T08:27:34;0.63;;;0.30;;
41532;SDS011;27262;-35.248;149.138;2022-07-29T08:30:09;1.05;;;0.40;;
41532;SDS011;27262;-35.248;149.138;2022-07-29T08:32:40;0.57;;;0.40;;
41532;SDS011;27262;-35.248;149.138;2022-07-29T08:35:20;0.30;;;0.30;;
41532;SDS011;27262;-35.248;149.138;2022-07-29T08:37:52;1.20;;;0.47;;
41532;SDS011;27262;-35.248;149.138;2022-07-29T08:40:22;0.50;;;0.40;;
41532;SDS011;27262;-35.248;149.138;2022-07-29T08:42:59;1.50;;;0.43;;
41532;SDS011;27262;-35.248;149.138;2022-07-29T08:45:41;0.90;;;0.40;;
41532;SDS011;27262;-35.248;149.138;2022-07-29T08:48:15;1.85;;;0.50;;
41532;SDS011;27262;-35.248;149.138;2022-07-29T08:50:54;0.60;;;0.43;;
41532;SDS011;27262;-35.248;149.138;2022-07-29T08:53:25;0.40;;;0.40;;
41532;SDS011;27262;-35.248;149.138;2022-07-29T08:55:57;0.65;;;0.35;;
41532;SDS011;27262;-35.248;149.138;2022-07-29T08:58:31;1.20;;;0.70;;
41532;SDS011;27262;-35.248;149.138;2022-07-29T09:01:04;1.52;;;0.65;;
41532;SDS011;27262;-35.248;149.138;2022-07-29T09:03:38;0.70;;;0.30;;
41532;SDS011;27262;-35.248;149.138;2022-07-29T09:06:13;1.25;;;0.55;;
41532;SDS011;27262;-35.248;149.138;2022-07-29T09:08:47;1.05;;;0.60;;
41532;SDS011;27262;-35.248;149.138;2022-07-29T09:11:18;0.90;;;0.40;;
41532;SDS011;27262;-35.248;149.138;2022-07-29T09:13:48;0.50;;;0.50;;
41532;SDS011;27262;-35.248;149.138;2022-07-29T09:16:19;1.08;;;0.52;;
41532;SDS011;27262;-35.248;149.138;2022-07-29T09:19:30;0.65;;;0.50;;
41532;SDS011;27262;-35.248;149.138;2022-07-29T09:22:11;1.83;;;0.50;;
41532;SDS011;27262;-35.248;149.138;2022-07-29T09:24:57;0.50;;;0.43;;
41532;SDS011;27262;-35.248;149.138;2022-07-29T09:27:27;1.70;;;0.70;;
41532;SDS011;27262;-35.248;149.138;2022-07-29T09:30:06;0.75;;;0.57;;
41532;SDS011;27262;-35.248;149.138;2022-07-29T09:32:54;0.93;;;0.57;;
41532;SDS011;27262;-35.248;149.138;2022-07-29T09:35:27;0.70;;;0.43;;
41532;SDS011;27262;-35.248;149.138;2022-07-29T09:38:02;1.85;;;0.70;;
41532;SDS011;27262;-35.248;149.138;2022-07-29T09:40:40;1.27;;;0.60;;
41532;SDS011;27262;-35.248;149.138;2022-07-29T09:43:31;1.83;;;0.60;;
41532;SDS011;27262;-35.248;149.138;2022-07-29T09:46:14;5.28;;;0.68;;
41532;SDS011;27262;-35.248;149.138;2022-07-29T09:48:44;5.25;;;1.00;;
41532;SDS011;27262;-35.248;149.138;2022-07-29T09:51:35;3.55;;;0.85;;
41532;SDS011;27262;-35.248;149.138;2022-07-29T09:54:24;4.13;;;0.70;;
41532;SDS011;27262;-35.248;149.138;2022-07-29T09:56:56;3.97;;;1.33;;
41532;SDS011;27262;-35.248;149.138;2022-07-29T09:59:26;7.65;;;0.80;;
41532;SDS011;27262;-35.248;149.138;2022-07-29T10:01:57;1.33;;;0.70;;
41532;SDS011;27262;-35.248;149.138;2022-07-29T10:04:40;3.15;;;0.80;;
41532;SDS011;27262;-35.248;149.138;2022-07-29T10:07:11;1.25;;;0.73;;
41532;SDS011;27262;-35.248;149.138;2022-07-29T10:09:49;5.70;;;0.90;;
41532;SDS011;27262;-35.248;149.138;2022-07-29T10:12:23;1.60;;;1.08;;
41532;SDS011;27262;-35.248;149.138;2022-07-29T10:14:53;1.55;;;1.05;;
41532;SDS011;27262;-35.248;149.138;2022-07-29T10:17:25;5.18;;;0.95;;
41532;SDS011;27262;-35.248;149.138;2022-07-29T10:19:55;2.45;;;1.00;;
41532;SDS011;27262;-35.248;149.138;2022-07-29T10:22:26;4.45;;;1.20;;
41532;SDS011;27262;-35.248;149.138;2022-07-29T10:25:17;3.15;;;1.40;;
41532;SDS011;27262;-35.248;149.138;2022-07-29T10:27:49;3.42;;;1.20;;
41532;SDS011;27262;-35.248;149.138;2022-07-29T10:30:24;6.05;;;1.60;;
41532;SDS011;27262;-35.248;149.138;2022-07-29T10:32:58;2.45;;;1.30;;
41532;SDS011;27262;-35.248;149.138;2022-07-29T10:45:06;6.00;;;1.30;;
41532;SDS011;27262;-35.248;149.138;2022-07-29T10:47:38;4.65;;;1.70;;
41532;SDS011;27262;-35.248;149.138;2022-07-29T10:50:08;1.35;;;1.00;;
41532;SDS011;27262;-35.248;149.138;2022-07-29T10:52:55;1.35;;;0.90;;
41532;SDS011;27262;-35.248;149.138;2022-07-29T10:55:36;3.75;;;1.20;;
41532;SDS011;27262;-35.248;149.138;2022-07-29T10:58:14;1.75;;;0.88;;
41532;SDS011;27262;-35.248;149.138;2022-07-29T11:00:52;2.30;;;1.30;;
41532;SDS011;27262;-35.248;149.138;2022-07-29T11:06:23;1.55;;;1.02;;
41532;SDS011;27262;-35.248;149.138;2022-07-29T11:12:50;1.73;;;1.58;;
41532;SDS011;27262;-35.248;149.138;2022-07-29T11:15:11;3.45;;;1.42;;
41532;SDS011;27262;-35.248;149.138;2022-07-29T11:28:52;5.47;;;1.48;;
41532;SDS011;27262;-35.248;149.138;2022-07-29T11:31:34;1.92;;;1.50;;
41532;SDS011;27262;-35.248;149.138;2022-07-29T11:45:19;4.10;;;1.67;;
41532;SDS011;27262;-35.248;149.138;2022-07-29T11:48:19;1.75;;;1.48;;
41532;SDS011;27262;-35.248;149.138;2022-07-29T11:50:56;4.80;;;1.40;;
41532;SDS011;27262;-35.248;149.138;2022-07-29T11:53:27;2.58;;;1.45;;
41532;SDS011;27262;-35.248;149.138;2022-07-29T11:55:59;1.58;;;1.30;;
41532;SDS011;27262;-35.248;149.138;2022-07-29T11:58:30;1.60;;;1.45;;
41532;SDS011;27262;-35.248;149.138;2022-07-29T12:01:03;2.38;;;1.40;;
41532;SDS011;27262;-35.248;149.138;2022-07-29T12:03:34;2.03;;;1.50;;
41532;SDS011;27262;-35.248;149.138;2022-07-29T12:06:11;2.13;;;1.20;;
41532;SDS011;27262;-35.248;149.138;2022-07-29T12:08:46;2.33;;;1.50;;
41532;SDS011;27262;-35.248;149.138;2022-07-29T12:11:17;1.52;;;1.33;;
41532;SDS011;27262;-35.248;149.138;2022-07-29T12:13:50;2.42;;;1.02;;
41532;SDS011;27262;-35.248;149.138;2022-07-29T12:16:21;1.38;;;1.23;;
41532;SDS011;27262;-35.248;149.138;2022-07-29T12:18:56;2.33;;;1.50;;
41532;SDS011;27262;-35.248;149.138;2022-07-29T12:21:44;4.65;;;1.27;;
41532;SDS011;27262;-35.248;149.138;2022-07-29T12:24:22;1.73;;;1.40;;
41532;SDS011;27262;-35.248;149.138;2022-07-29T12:26:56;9.35;;;1.52;;
41532;SDS011;27262;-35.248;149.138;2022-07-29T12:29:28;2.97;;;1.73;;
41532;SDS011;27262;-35.248;149.138;2022-07-29T12:32:01;1.98;;;1.35;;
41532;SDS011;27262;-35.248;149.138;2022-07-29T12:34:45;2.03;;;1.13;;
41532;SDS011;27262;-35.248;149.138;2022-07-29T12:37:16;2.25;;;1.30;;
41532;SDS011;27262;-35.248;149.138;2022-07-29T12:40:07;3.55;;;1.35;;
41532;SDS011;27262;-35.248;149.138;2022-07-29T12:42:39;1.85;;;1.42;;
41532;SDS011;27262;-35.248;149.138;2022-07-29T12:45:09;3.17;;;1.50;;
41532;SDS011;27262;-35.248;149.138;2022-07-29T12:47:52;2.30;;;1.55;;
41532;SDS011;27262;-35.248;149.138;2022-07-29T12:50:23;3.33;;;1.30;;
41532;SDS011;27262;-35.248;149.138;2022-07-29T12:52:53;2.22;;;1.35;;
41532;SDS011;27262;-35.248;149.138;2022-07-29T12:55:39;4.18;;;2.50;;
41532;SDS011;27262;-35.248;149.138;2022-07-29T12:58:41;2.75;;;2.40;;
41532;SDS011;27262;-35.248;149.138;2022-07-29T13:01:17;4.15;;;1.90;;
41532;SDS011;27262;-35.248;149.138;2022-07-29T13:03:51;2.30;;;2.10;;
41532;SDS011;27262;-35.248;149.138;2022-07-29T13:06:39;2.80;;;2.00;;
41532;SDS011;27262;-35.248;149.138;2022-07-29T13:09:17;2.20;;;1.98;;
41532;SDS011;27262;-35.248;149.138;2022-07-29T13:11:52;1.60;;;1.50;;
41532;SDS011;27262;-35.248;149.138;2022-07-29T13:14:30;2.55;;;2.35;;
41532;SDS011;27262;-35.248;149.138;2022-07-29T13:19:37;3.20;;;2.72;;
41532;SDS011;27262;-35.248;149.138;2022-07-29T13:22:15;3.22;;;2.70;;
41532;SDS011;27262;-35.248;149.138;2022-07-29T13:27:26;4.53;;;3.17;;
41532;SDS011;27262;-35.248;149.138;2022-07-29T13:29:58;4.53;;;3.05;;
41532;SDS011;27262;-35.248;149.138;2022-07-29T13:32:29;3.50;;;2.40;;
41532;SDS011;27262;-35.248;149.138;2022-07-29T13:35:04;3.13;;;2.65;;
41532;SDS011;27262;-35.248;149.138;2022-07-29T13:37:36;4.15;;;3.08;;
41532;SDS011;27262;-35.248;149.138;2022-07-29T13:40:07;2.90;;;2.20;;
41532;SDS011;27262;-35.248;149.138;2022-07-29T13:42:39;3.40;;;2.40;;
41532;SDS011;27262;-35.248;149.138;2022-07-29T13:45:10;2.83;;;2.40;;
41532;SDS011;27262;-35.248;149.138;2022-07-29T13:47:40;2.85;;;2.33;;
41532;SDS011;27262;-35.248;149.138;2022-07-29T13:50:15;3.70;;;2.53;;
41532;SDS011;27262;-35.248;149.138;2022-07-29T13:52:45;3.30;;;2.63;;
41532;SDS011;27262;-35.248;149.138;2022-07-29T13:55:17;2.88;;;2.58;;
41532;SDS011;27262;-35.248;149.138;2022-07-29T13:57:47;2.63;;;2.10;;
41532;SDS011;27262;-35.248;149.138;2022-07-29T14:00:18;2.17;;;1.98;;
41532;SDS011;27262;-35.248;149.138;2022-07-29T14:02:49;3.88;;;2.60;;
41532;SDS011;27262;-35.248;149.138;2022-07-29T14:05:19;2.80;;;2.13;;
41532;SDS011;27262;-35.248;149.138;2022-07-29T14:07:50;2.42;;;1.80;;
41532;SDS011;27262;-35.248;149.138;2022-07-29T14:10:20;2.65;;;1.90;;
41532;SDS011;27262;-35.248;149.138;2022-07-29T14:12:51;2.05;;;1.80;;
41532;SDS011;27262;-35.248;149.138;2022-07-29T14:15:21;2.30;;;1.95;;
41532;SDS011;27262;-35.248;149.138;2022-07-29T14:17:51;3.30;;;1.98;;
41532;SDS011;27262;-35.248;149.138;2022-07-29T14:20:22;2.10;;;1.83;;
41532;SDS011;27262;-35.248;149.138;2022-07-29T14:22:52;3.33;;;2.40;;
41532;SDS011;27262;-35.248;149.138;2022-07-29T14:25:23;2.83;;;1.90;;
41532;SDS011;27262;-35.248;149.138;2022-07-29T14:27:53;3.08;;;1.98;;
41532;SDS011;27262;-35.248;149.138;2022-07-29T14:30:24;2.55;;;1.80;;
41532;SDS011;27262;-35.248;149.138;2022-07-29T14:32:54;2.83;;;2.15;;
41532;SDS011;27262;-35.248;149.138;2022-07-29T14:35:24;2.88;;;2.30;;
41532;SDS011;27262;-35.248;149.138;2022-07-29T14:37:55;2.85;;;2.42;;
41532;SDS011;27262;-35.248;149.138;2022-07-29T14:40:25;2.70;;;2.10;;
41532;SDS011;27262;-35.248;149.138;2022-07-29T14:42:55;3.78;;;2.10;;
41532;SDS011;27262;-35.248;149.138;2022-07-29T14:45:26;3.08;;;2.53;;
41532;SDS011;27262;-35.248;149.138;2022-07-29T14:47:57;3.75;;;3.05;;
41532;SDS011;27262;-35.248;149.138;2022-07-29T14:50:28;3.60;;;3.08;;
41532;SDS011;27262;-35.248;149.138;2022-07-29T14:52:59;3.08;;;2.47;;
41532;SDS011;27262;-35.248;149.138;2022-07-29T14:55:30;3.13;;;2.53;;
41532;SDS011;27262;-35.248;149.138;2022-07-29T14:58:00;3.80;;;2.25;;
41532;SDS011;27262;-35.248;149.138;2022-07-29T15:00:37;3.60;;;2.63;;
41532;SDS011;27262;-35.248;149.138;2022-07-29T15:03:08;2.88;;;1.95;;
41532;SDS011;27262;-35.248;149.138;2022-07-29T15:05:49;2.85;;;2.22;;
41532;SDS011;27262;-35.248;149.138;2022-07-29T15:08:20;2.60;;;2.40;;
41532;SDS011;27262;-35.248;149.138;2022-07-29T15:10:50;2.65;;;2.42;;
41532;SDS011;27262;-35.248;149.138;2022-07-29T15:13:21;2.30;;;2.00;;
41532;SDS011;27262;-35.248;149.138;2022-07-29T15:15:51;2.50;;;2.22;;
41532;SDS011;27262;-35.248;149.138;2022-07-29T15:18:26;2.40;;;2.08;;
41532;SDS011;27262;-35.248;149.138;2022-07-29T15:20:56;2.30;;;2.10;;
41532;SDS011;27262;-35.248;149.138;2022-07-29T15:23:26;2.10;;;1.77;;
41532;SDS011;27262;-35.248;149.138;2022-07-29T15:25:57;2.13;;;1.92;;
41532;SDS011;27262;-35.248;149.138;2022-07-29T15:28:27;2.10;;;1.80;;
41532;SDS011;27262;-35.248;149.138;2022-07-29T15:30:58;2.75;;;2.20;;
41532;SDS011;27262;-35.248;149.138;2022-07-29T15:33:28;2.97;;;2.00;;
41532;SDS011;27262;-35.248;149.138;2022-07-29T15:35:58;1.88;;;1.67;;
41532;SDS011;27262;-35.248;149.138;2022-07-29T15:38:28;2.83;;;2.10;;